Time;durP1;ratioP1;P1;durP2;ratioP2;P2;SDS_P1;SDS_P2;PMS_P1;PMS_P2;Temp;Humidity;BMP_temperature;BMP_pressure;BME280_temperature;BME280_humidity;BME280_pressure;Samples;Min_cycle;Max_cycle;Signal;HPM_P1;HPM_P2
2022/10/30 00:00:27;;;;;;;13.15;3.60;;;;;;;-146.48;100.00;60459.00;5301924;28;20051;-73
2022/10/30 00:02:59;;;;;;;10.32;3.70;;;;;;;-146.48;100.00;60459.00;5303181;28;20024;-73
2022/10/30 00:05:30;;;;;;;12.63;4.20;;;;;;;-146.48;100.00;60459.00;5301841;28;20155;-73
2022/10/30 00:08:01;;;;;;;7.88;4.03;;;;;;;-146.48;100.00;60459.00;5303036;28;20024;-73
2022/10/30 00:10:33;;;;;;;12.95;3.92;;;;;;;-146.48;100.00;60459.00;5302483;28;20391;-73
2022/10/30 00:13:04;;;;;;;11.63;4.78;;;;;;;-146.48;100.00;60459.00;5302252;28;20077;-72
2022/10/30 00:15:36;;;;;;;11.98;4.30;;;;;;;-146.48;100.00;60459.00;5302176;28;20052;-73
2022/10/30 00:18:07;;;;;;;11.05;3.40;;;;;;;-146.48;100.00;60459.00;5302905;28;20021;-73
2022/10/30 00:20:39;;;;;;;9.55;4.10;;;;;;;-146.48;100.00;60459.00;5301469;28;20482;-73
2022/10/30 00:23:10;;;;;;;12.90;3.95;;;;;;;-146.48;100.00;60459.00;5302798;28;20368;-72
2022/10/30 00:25:41;;;;;;;9.43;3.85;;;;;;;-146.48;100.00;60459.00;5302040;28;20387;-74
2022/10/30 00:28:12;;;;;;;10.43;4.05;;;;;;;-146.48;100.00;60459.00;5301927;28;20395;-74
2022/10/30 00:30:44;;;;;;;11.23;4.03;;;;;;;-146.48;100.00;60459.00;5301395;28;20062;-74
2022/10/30 00:33:15;;;;;;;12.10;4.18;;;;;;;-146.48;100.00;60459.00;5302825;28;20020;-74
2022/10/30 00:35:47;;;;;;;8.38;4.10;;;;;;;-146.48;100.00;60459.00;5301475;28;20028;-74
2022/10/30 00:38:19;;;;;;;8.98;3.95;;;;;;;-146.48;100.00;60459.00;5302612;28;20059;-74
2022/10/30 00:40:50;;;;;;;10.98;4.18;;;;;;;-146.48;100.00;60459.00;5301081;28;20030;-74
2022/10/30 00:43:39;;;;;;;9.25;3.50;;;;;;;-146.48;100.00;60459.00;5302857;28;20391;-74
2022/10/30 00:46:22;;;;;;;;;;;;;;;-146.48;100.00;60459.00;5303121;28;20081;-74
2022/10/30 00:49:08;;;;;;;8.02;3.42;;;;;;;-146.48;100.00;60459.00;5301132;28;19927;-74
2022/10/30 00:51:44;;;;;;;10.20;4.22;;;;;;;-146.48;100.00;60459.00;5301848;28;20031;-74
2022/10/30 00:54:17;;;;;;;9.73;3.95;;;;;;;-146.48;100.00;60459.00;5302617;28;20329;-75
2022/10/30 00:56:50;;;;;;;11.05;3.25;;;;;;;-146.48;100.00;60459.00;5301224;28;20032;-73
2022/10/30 00:59:29;;;;;;;9.13;3.65;;;;;;;-146.48;100.00;60459.00;5302253;28;20073;-73
2022/10/30 01:02:02;;;;;;;11.05;4.25;;;;;;;-146.48;100.00;60459.00;5301541;28;20030;-73
2022/10/30 01:04:36;;;;;;;13.27;4.32;;;;;;;-146.48;100.00;60459.00;5301781;28;20035;-75
2022/10/30 01:07:14;;;;;;;11.40;4.05;;;;;;;-146.48;100.00;60459.00;5302289;28;20031;-73
2022/10/30 01:09:46;;;;;;;10.55;4.13;;;;;;;-146.48;100.00;60459.00;5300930;28;20074;-73
2022/10/30 01:12:18;;;;;;;9.50;3.92;;;;;;;-146.48;100.00;60459.00;5302537;28;20301;-73
2022/10/30 01:14:54;;;;;;;9.13;3.85;;;;;;;-146.48;100.00;60459.00;5301848;28;20050;-73
2022/10/30 01:17:32;;;;;;;10.40;3.60;;;;;;;-146.48;100.00;60459.00;5301381;28;20095;-72
2022/10/30 01:20:18;;;;;;;9.13;3.38;;;;;;;-146.48;100.00;60459.00;5302446;28;20039;-72
2022/10/30 01:23:07;;;;;;;7.00;3.65;;;;;;;-146.48;100.00;60459.00;5301194;28;20050;-73
2022/10/30 01:26:01;;;;;;;9.07;4.38;;;;;;;-146.48;100.00;60459.00;5301803;28;20425;-72
2022/10/30 01:29:01;;;;;;;8.57;4.10;;;;;;;-146.48;100.00;60459.00;5301391;28;20452;-72
2022/10/30 01:31:54;;;;;;;10.05;4.00;;;;;;;-146.48;100.00;60459.00;5300844;28;20055;-73
2022/10/30 01:34:40;;;;;;;7.75;3.85;;;;;;;-146.48;100.00;60459.00;5301776;28;20056;-73
2022/10/30 01:37:20;;;;;;;9.52;4.18;;;;;;;-146.48;100.00;60459.00;5301526;28;20052;-73
2022/10/30 01:39:52;;;;;;;9.30;3.70;;;;;;;-146.48;100.00;60459.00;5301757;28;20371;-73
2022/10/30 01:42:44;;;;;;;9.40;3.72;;;;;;;-146.48;100.00;60459.00;5305684;28;20077;-73
2022/10/30 01:45:39;;;;;;;12.20;4.15;;;;;;;-146.48;100.00;60459.00;5305065;28;20043;-73
2022/10/30 01:48:41;;;;;;;10.23;4.05;;;;;;;-146.48;100.00;60459.00;5305259;28;20060;-73
2022/10/30 01:51:48;;;;;;;13.73;4.38;;;;;;;-146.48;100.00;60459.00;5305100;28;20051;-73
2022/10/30 01:54:41;;;;;;;9.43;4.63;;;;;;;-146.48;100.00;60459.00;5306041;28;20024;-73
2022/10/30 01:57:34;;;;;;;10.93;3.78;;;;;;;-146.48;100.00;60459.00;5305708;28;20024;-73
2022/10/30 02:00:08;;;;;;;11.43;3.95;;;;;;;-146.48;100.00;60459.00;5304882;28;20032;-75
2022/10/30 02:02:41;;;;;;;7.00;3.92;;;;;;;-146.48;100.00;60459.00;5304952;28;20020;-73
2022/10/30 02:05:20;;;;;;;6.38;3.83;;;;;;;-146.48;100.00;60459.00;5304752;28;20036;-73
2022/10/30 02:07:52;;;;;;;13.60;3.90;;;;;;;-146.48;100.00;60459.00;5305050;28;20088;-72
2022/10/30 02:10:23;;;;;;;11.13;4.05;;;;;;;-146.48;100.00;60459.00;5305333;28;20032;-76
2022/10/30 02:12:55;;;;;;;11.70;4.50;;;;;;;-146.48;100.00;60459.00;5304324;28;20111;-75
2022/10/30 02:15:26;;;;;;;9.80;4.25;;;;;;;-146.48;100.00;60459.00;5304858;28;20103;-75
2022/10/30 02:17:57;;;;;;;9.88;4.57;;;;;;;-146.48;100.00;60459.00;5305368;28;20503;-75
2022/10/30 02:20:29;;;;;;;8.40;3.92;;;;;;;-146.48;100.00;60459.00;5303709;28;20035;-76
2022/10/30 02:23:01;;;;;;;10.25;4.22;;;;;;;-146.48;100.00;60459.00;5305255;28;20020;-75
2022/10/30 02:25:32;;;;;;;9.40;4.00;;;;;;;-146.48;100.00;60459.00;5304536;28;20594;-75
2022/10/30 02:28:03;;;;;;;10.80;4.57;;;;;;;-146.48;100.00;60459.00;5304352;28;20016;-75
2022/10/30 02:30:35;;;;;;;10.02;4.35;;;;;;;-146.48;100.00;60459.00;5304266;28;20040;-75
2022/10/30 02:33:06;;;;;;;11.25;3.80;;;;;;;-146.48;100.00;60459.00;5304111;28;20360;-75
2022/10/30 02:35:37;;;;;;;8.48;4.05;;;;;;;-146.48;100.00;60459.00;5304237;28;20054;-75
2022/10/30 02:38:09;;;;;;;9.70;4.85;;;;;;;-146.48;100.00;60459.00;5304866;28;20490;-75
2022/10/30 02:40:40;;;;;;;8.82;4.00;;;;;;;-146.48;100.00;60459.00;5303487;28;20486;-75
2022/10/30 02:43:11;;;;;;;9.05;4.22;;;;;;;-146.48;100.00;60459.00;5304753;28;20474;-75
2022/10/30 02:45:43;;;;;;;12.98;4.47;;;;;;;-146.48;100.00;60459.00;5303883;28;20115;-75
2022/10/30 02:48:14;;;;;;;9.80;5.05;;;;;;;-146.48;100.00;60459.00;5303980;28;20027;-75
2022/10/30 02:50:45;;;;;;;8.93;4.15;;;;;;;-146.48;100.00;60459.00;5304096;28;20408;-74
2022/10/30 02:53:16;;;;;;;13.70;5.07;;;;;;;-146.48;100.00;60459.00;5303818;28;20506;-75
2022/10/30 02:55:48;;;;;;;11.27;4.70;;;;;;;-146.48;100.00;60459.00;5303033;28;20447;-75
2022/10/30 02:58:19;;;;;;;8.40;4.50;;;;;;;-146.48;100.00;60459.00;5304568;28;20546;-74
2022/10/30 03:00:50;;;;;;;9.48;4.18;;;;;;;-146.48;100.00;60459.00;5304154;28;20032;-74
2022/10/30 03:03:21;;;;;;;7.88;4.05;;;;;;;-146.48;100.00;60459.00;5303807;28;20103;-74
2022/10/30 03:05:53;;;;;;;9.52;3.78;;;;;;;-146.48;100.00;60459.00;5303747;28;20093;-74
2022/10/30 03:08:24;;;;;;;8.57;4.35;;;;;;;-146.48;100.00;60459.00;5303112;28;20024;-75
2022/10/30 03:11:03;;;;;;;13.50;4.90;;;;;;;-146.48;100.00;60459.00;5304014;28;20115;-74
2022/10/30 03:13:36;;;;;;;11.25;4.28;;;;;;;-146.48;100.00;60459.00;5303752;28;20085;-75
2022/10/30 03:16:13;;;;;;;11.15;4.25;;;;;;;-146.48;100.00;60459.00;5303465;28;20099;-73
2022/10/30 03:18:44;;;;;;;10.02;4.63;;;;;;;-146.48;100.00;60459.00;5303499;28;20048;-73
2022/10/30 03:21:18;;;;;;;11.30;4.95;;;;;;;-146.48;100.00;60459.00;5304003;28;20020;-72
2022/10/30 03:23:50;;;;;;;12.43;4.38;;;;;;;-146.48;100.00;60459.00;5302870;28;20020;-73
2022/10/30 03:26:21;;;;;;;9.07;4.40;;;;;;;-146.48;100.00;60459.00;5303919;28;20028;-73
2022/10/30 03:28:53;;;;;;;10.60;4.28;;;;;;;-146.48;100.00;60459.00;5303158;28;20044;-73
2022/10/30 03:31:24;;;;;;;11.98;4.10;;;;;;;-146.48;100.00;60459.00;5303063;28;20028;-73
2022/10/30 03:33:55;;;;;;;10.38;4.93;;;;;;;-146.48;100.00;60459.00;5303478;28;20024;-73
2022/10/30 03:36:27;;;;;;;15.52;4.72;;;;;;;-146.48;100.00;60459.00;5302482;28;20024;-73
2022/10/30 03:38:58;;;;;;;8.85;3.95;;;;;;;-146.48;100.00;60459.00;5304054;28;20020;-73
2022/10/30 03:41:29;;;;;;;6.95;3.70;;;;;;;-146.48;100.00;60459.00;5303062;28;20042;-73
2022/10/30 03:44:00;;;;;;;6.65;4.22;;;;;;;-146.48;100.00;60459.00;5302713;28;20052;-73
2022/10/30 03:46:32;;;;;;;9.63;4.35;;;;;;;-146.48;100.00;60459.00;5302678;28;20070;-73
2022/10/30 03:49:03;;;;;;;10.32;4.70;;;;;;;-146.48;100.00;60459.00;5303645;28;20328;-73
2022/10/30 03:51:34;;;;;;;9.57;4.22;;;;;;;-146.48;100.00;60459.00;5302180;28;20028;-73
2022/10/30 03:54:05;;;;;;;11.68;4.28;;;;;;;-146.48;100.00;60459.00;5303369;28;20030;-73
2022/10/30 03:56:37;;;;;;;11.10;4.90;;;;;;;-146.48;100.00;60459.00;5302547;28;20036;-73
2022/10/30 03:59:08;;;;;;;12.23;4.68;;;;;;;-146.48;100.00;60459.00;5302600;28;20020;-73
2022/10/30 04:01:39;;;;;;;12.10;4.50;;;;;;;-146.48;100.00;60459.00;5302611;28;20032;-73
2022/10/30 04:04:10;;;;;;;10.38;3.92;;;;;;;-146.48;100.00;60459.00;5303178;28;20449;-72
2022/10/30 04:06:42;;;;;;;8.55;4.20;;;;;;;-146.48;100.00;60459.00;5301569;28;20429;-73
2022/10/30 04:09:13;;;;;;;9.05;5.13;;;;;;;-146.48;100.00;60459.00;5303095;28;20043;-73
2022/10/30 04:11:44;;;;;;;9.40;4.20;;;;;;;-146.48;100.00;60459.00;5301723;28;20105;-73
2022/10/30 04:14:16;;;;;;;12.50;4.13;;;;;;;-146.48;100.00;60459.00;5303127;28;20106;-74
2022/10/30 04:16:47;;;;;;;8.85;4.05;;;;;;;-146.48;100.00;60459.00;5302173;28;20024;-74
2022/10/30 04:19:18;;;;;;;13.30;4.20;;;;;;;-146.48;100.00;60459.00;5302225;28;20033;-74
2022/10/30 04:21:50;;;;;;;8.27;4.75;;;;;;;-146.48;100.00;60459.00;5302256;28;20027;-75
2022/10/30 04:24:22;;;;;;;12.98;4.38;;;;;;;-146.48;100.00;60459.00;5302739;28;20409;-75
2022/10/30 04:26:53;;;;;;;13.07;4.47;;;;;;;-146.48;100.00;60459.00;5301504;28;20588;-74
2022/10/30 04:29:24;;;;;;;14.30;4.60;;;;;;;-146.48;100.00;60459.00;5302383;28;20131;-75
2022/10/30 04:31:56;;;;;;;10.90;3.97;;;;;;;-146.48;100.00;60459.00;5302433;28;20021;-75
2022/10/30 04:34:27;;;;;;;8.32;4.63;;;;;;;-146.48;100.00;60459.00;5301494;28;20051;-75
2022/10/30 04:36:58;;;;;;;11.18;4.50;;;;;;;-146.48;100.00;60459.00;5302930;28;20020;-75
2022/10/30 04:39:29;;;;;;;10.43;4.57;;;;;;;-146.48;100.00;60459.00;5301544;28;20043;-75
2022/10/30 04:42:01;;;;;;;10.00;4.65;;;;;;;-146.48;100.00;60459.00;5302656;28;20027;-75
2022/10/30 04:44:32;;;;;;;12.10;4.95;;;;;;;-146.48;100.00;60459.00;5301968;28;20076;-74
2022/10/30 04:47:03;;;;;;;14.13;4.43;;;;;;;-146.48;100.00;60459.00;5302026;28;20130;-74
2022/10/30 04:49:34;;;;;;;9.93;4.93;;;;;;;-146.48;100.00;60459.00;5301823;28;20024;-74
2022/10/30 04:52:06;;;;;;;12.43;4.65;;;;;;;-146.48;100.00;60459.00;5302607;28;20024;-74
2022/10/30 04:54:37;;;;;;;11.80;4.78;;;;;;;-146.48;100.00;60459.00;5301016;28;20036;-74
2022/10/30 04:57:08;;;;;;;12.18;5.25;;;;;;;-146.48;100.00;60459.00;5302706;28;20028;-74
2022/10/30 04:59:39;;;;;;;6.88;4.28;;;;;;;-146.48;100.00;60459.00;5301944;28;20043;-74
2022/10/30 05:02:11;;;;;;;10.90;5.07;;;;;;;-146.48;100.00;60459.00;5301775;28;20032;-75
2022/10/30 05:04:42;;;;;;;10.80;4.80;;;;;;;-146.48;100.00;60459.00;5301772;28;20035;-74
2022/10/30 05:07:14;;;;;;;8.75;5.13;;;;;;;-146.48;100.00;60459.00;5302312;28;20030;-75
2022/10/30 05:09:46;;;;;;;14.30;5.28;;;;;;;-146.48;100.00;60459.00;5301038;28;20020;-74
2022/10/30 05:12:18;;;;;;;12.80;5.40;;;;;;;-146.48;100.00;60459.00;5302555;28;20024;-74
2022/10/30 05:14:49;;;;;;;11.15;4.70;;;;;;;-146.48;100.00;60459.00;5300762;28;20108;-74
2022/10/30 05:17:20;;;;;;;14.45;4.57;;;;;;;-146.48;100.00;60459.00;5306528;28;20539;-73
2022/10/30 05:19:53;;;;;;;8.55;4.43;;;;;;;-146.48;100.00;60459.00;5305643;28;20050;-74
2022/10/30 05:22:24;;;;;;;11.27;4.35;;;;;;;-146.48;100.00;60459.00;5305490;28;20020;-74
2022/10/30 05:24:55;;;;;;;10.68;4.30;;;;;;;-146.48;100.00;60459.00;5305811;28;20031;-74
2022/10/30 05:27:27;;;;;;;11.40;4.53;;;;;;;-146.48;100.00;60459.00;5305891;28;20387;-74
2022/10/30 05:29:58;;;;;;;10.13;4.05;;;;;;;-146.48;100.00;60459.00;5305190;28;20090;-74
2022/10/30 05:32:29;;;;;;;11.10;4.25;;;;;;;-146.48;100.00;60459.00;5305520;28;20471;-75
2022/10/30 05:35:00;;;;;;;12.18;4.80;;;;;;;-146.48;100.00;60459.00;5306101;28;20027;-74
2022/10/30 05:37:32;;;;;;;11.30;4.85;;;;;;;-146.48;100.00;60459.00;5304759;28;20472;-74
2022/10/30 05:40:03;;;;;;;9.57;4.35;;;;;;;-146.48;100.00;60459.00;5305927;28;20471;-73
2022/10/30 05:42:35;;;;;;;9.82;4.78;;;;;;;-146.48;100.00;60459.00;5305387;28;20557;-73
2022/10/30 05:45:06;;;;;;;10.30;4.55;;;;;;;-146.48;100.00;60459.00;5305212;28;20038;-73
2022/10/30 05:47:37;;;;;;;9.60;4.40;;;;;;;-146.48;100.00;60459.00;5305224;28;20039;-74
2022/10/30 05:50:11;;;;;;;11.98;4.75;;;;;;;-146.48;100.00;60459.00;5305160;28;20434;-74
2022/10/30 05:52:42;;;;;;;10.60;4.50;;;;;;;-146.48;100.00;60459.00;5305353;28;20385;-73
2022/10/30 05:55:13;;;;;;;10.05;4.25;;;;;;;-146.48;100.00;60459.00;5305779;28;20024;-73
2022/10/30 05:57:45;;;;;;;10.95;4.68;;;;;;;-146.48;100.00;60459.00;5304501;28;20016;-74
2022/10/30 06:00:16;;;;;;;8.20;4.78;;;;;;;-146.48;100.00;60459.00;5305808;28;20024;-74
2022/10/30 06:02:47;;;;;;;9.48;4.30;;;;;;;-146.48;100.00;60459.00;5305058;28;20117;-73
2022/10/30 06:05:19;;;;;;;12.25;4.72;;;;;;;-146.48;100.00;60459.00;5304542;28;20034;-73
2022/10/30 06:07:54;;;;;;;10.60;4.82;;;;;;;-146.48;100.00;60459.00;5304972;28;20035;-73
2022/10/30 06:10:26;;;;;;;10.68;4.25;;;;;;;-146.48;100.00;60459.00;5305318;28;20031;-74
2022/10/30 06:13:00;;;;;;;10.60;4.75;;;;;;;-146.48;100.00;60459.00;5304689;28;20473;-73
2022/10/30 06:15:31;;;;;;;10.77;4.68;;;;;;;-146.48;100.00;60459.00;5304767;28;20112;-73
2022/10/30 06:18:03;;;;;;;12.77;5.50;;;;;;;-146.48;100.00;60459.00;5304357;28;20559;-74
2022/10/30 06:20:34;;;;;;;14.65;5.68;;;;;;;-146.48;100.00;60459.00;5304490;28;20372;-73
2022/10/30 06:23:08;;;;;;;16.55;4.85;;;;;;;-146.48;100.00;60459.00;5305253;28;20034;-73
2022/10/30 06:25:40;;;;;;;11.57;4.60;;;;;;;-146.48;100.00;60459.00;5303464;28;20416;-73
2022/10/30 06:28:12;;;;;;;9.95;5.28;;;;;;;-146.48;100.00;60459.00;5303540;28;20099;-74
2022/10/30 06:30:43;;;;;;;13.63;5.00;;;;;;;-146.48;100.00;60459.00;5303840;28;20056;-73
2022/10/30 06:33:15;;;;;;;9.15;4.45;;;;;;;-146.48;100.00;60459.00;5303999;28;20085;-73
2022/10/30 06:35:49;;;;;;;11.55;4.82;;;;;;;-146.48;100.00;60459.00;5304214;28;20434;-74
2022/10/30 06:38:21;;;;;;;10.07;4.55;;;;;;;-146.48;100.00;60459.00;5304790;28;20111;-74
2022/10/30 06:40:52;;;;;;;12.35;4.82;;;;;;;-146.48;100.00;60459.00;5303333;28;20558;-74
2022/10/30 06:43:23;;;;;;;10.30;5.13;;;;;;;-146.48;100.00;60459.00;5304617;28;20043;-74
2022/10/30 06:45:56;;;;;;;11.05;4.70;;;;;;;-146.48;100.00;60459.00;5304524;28;20069;-74
2022/10/30 06:48:28;;;;;;;12.90;4.38;;;;;;;-146.48;100.00;60459.00;5303310;28;20413;-73
2022/10/30 06:51:01;;;;;;;8.18;4.65;;;;;;;-146.48;100.00;60459.00;5304644;28;20031;-73
2022/10/30 06:53:33;;;;;;;12.10;5.32;;;;;;;-146.48;100.00;60459.00;5303031;28;20025;-73
2022/10/30 06:56:04;;;;;;;11.93;5.20;;;;;;;-146.48;100.00;60459.00;5304756;28;20028;-74
2022/10/30 06:58:38;;;;;;;12.02;4.75;;;;;;;-146.48;100.00;60459.00;5303916;28;20028;-74
2022/10/30 07:01:09;;;;;;;12.68;4.78;;;;;;;-146.48;100.00;60459.00;5303756;28;20024;-74
2022/10/30 07:03:40;;;;;;;11.55;5.55;;;;;;;-146.48;100.00;60459.00;5303571;28;20078;-74
2022/10/30 07:06:11;;;;;;;7.72;5.38;;;;;;;-146.48;100.00;60459.00;5304111;28;20096;-74
2022/10/30 07:08:43;;;;;;;11.10;5.05;;;;;;;-146.48;100.00;60459.00;5303001;28;20036;-74
2022/10/30 07:11:14;;;;;;;9.77;5.30;;;;;;;-146.48;100.00;60459.00;5304327;28;20028;-74
2022/10/30 07:13:45;;;;;;;11.75;4.68;;;;;;;-146.48;100.00;60459.00;5303664;28;20024;-74
2022/10/30 07:16:17;;;;;;;12.80;5.40;;;;;;;-146.48;100.00;60459.00;5303296;28;20034;-75
2022/10/30 07:18:48;;;;;;;13.35;5.07;;;;;;;-146.48;100.00;60459.00;5303529;28;20103;-75
2022/10/30 07:21:19;;;;;;;7.63;4.95;;;;;;;-146.48;100.00;60459.00;5303288;28;20081;-76
2022/10/30 07:23:50;;;;;;;12.82;4.72;;;;;;;-146.48;100.00;60459.00;5303325;28;20179;-75
2022/10/30 07:26:22;;;;;;;9.63;5.30;;;;;;;-146.48;100.00;60459.00;5304026;28;20028;-75
2022/10/30 07:28:53;;;;;;;14.35;5.55;;;;;;;-146.48;100.00;60459.00;5302261;28;20058;-73
2022/10/30 07:31:24;;;;;;;9.30;4.82;;;;;;;-146.48;100.00;60459.00;5303797;28;20490;-75
2022/10/30 07:33:55;;;;;;;11.35;5.30;;;;;;;-146.48;100.00;60459.00;5303629;28;20073;-75
2022/10/30 07:36:27;;;;;;;9.75;5.25;;;;;;;-146.48;100.00;60459.00;5302277;28;20028;-76
2022/10/30 07:38:58;;;;;;;10.27;5.10;;;;;;;-146.48;100.00;60459.00;5303356;28;20031;-75
2022/10/30 07:41:29;;;;;;;9.95;4.80;;;;;;;-146.48;100.00;60459.00;5302938;28;20032;-76
2022/10/30 07:44:01;;;;;;;9.77;5.20;;;;;;;-146.48;100.00;60459.00;5302560;28;20386;-74
2022/10/30 07:46:32;;;;;;;10.00;4.93;;;;;;;-146.48;100.00;60459.00;5302938;28;20422;-76
2022/10/30 07:49:03;;;;;;;14.15;4.68;;;;;;;-146.48;100.00;60459.00;5303499;28;20036;-75
2022/10/30 07:51:34;;;;;;;12.98;5.13;;;;;;;-146.48;100.00;60459.00;5301988;28;20032;-75
2022/10/30 07:54:06;;;;;;;13.45;5.38;;;;;;;-146.48;100.00;60459.00;5303713;28;20024;-75
2022/10/30 07:56:37;;;;;;;8.60;4.45;;;;;;;-146.48;100.00;60459.00;5301976;28;20038;-76
2022/10/30 07:59:08;;;;;;;11.18;5.35;;;;;;;-146.48;100.00;60459.00;5303144;28;20541;-75
2022/10/30 08:01:39;;;;;;;10.80;5.10;;;;;;;-146.48;100.00;60459.00;5302562;28;20584;-74
2022/10/30 08:04:12;;;;;;;12.52;4.97;;;;;;;-146.48;100.00;60459.00;5302563;28;20464;-75
2022/10/30 08:06:44;;;;;;;8.43;4.78;;;;;;;-146.48;100.00;60459.00;5302682;28;20035;-74
2022/10/30 08:09:15;;;;;;;14.13;5.68;;;;;;;-146.48;100.00;60459.00;5303306;28;20028;-75
2022/10/30 08:11:46;;;;;;;14.40;5.10;;;;;;;-146.48;100.00;60459.00;5301806;28;20038;-75
2022/10/30 08:14:17;;;;;;;10.60;5.50;;;;;;;-146.48;100.00;60459.00;5302917;28;20031;-74
2022/10/30 08:16:49;;;;;;;10.38;4.78;;;;;;;-146.48;100.00;60459.00;5302415;28;20032;-73
2022/10/30 08:19:21;;;;;;;7.78;4.57;;;;;;;-146.48;100.00;60459.00;5302110;28;20028;-73
2022/10/30 08:21:52;;;;;;;10.38;4.20;;;;;;;-146.48;100.00;60459.00;5302433;28;20028;-73
2022/10/30 08:24:23;;;;;;;12.32;4.57;;;;;;;-146.48;100.00;60459.00;5302466;28;20036;-73
2022/10/30 08:26:54;;;;;;;10.07;5.03;;;;;;;-146.48;100.00;60459.00;5301744;28;20099;-73
2022/10/30 08:29:26;;;;;;;10.75;5.07;;;;;;;-146.48;100.00;60459.00;5302195;28;20036;-74
2022/10/30 08:31:57;;;;;;;9.02;4.60;;;;;;;-146.48;100.00;60459.00;5302124;28;20038;-75
2022/10/30 08:34:31;;;;;;;9.30;3.97;;;;;;;-146.48;100.00;60459.00;5302089;28;20386;-75
2022/10/30 08:37:02;;;;;;;11.98;4.57;;;;;;;-146.48;100.00;60459.00;5302726;28;20026;-75
2022/10/30 08:39:34;;;;;;;9.13;4.35;;;;;;;-146.48;100.00;60459.00;5301732;28;20035;-74
2022/10/30 08:42:05;;;;;;;11.10;4.68;;;;;;;-146.48;100.00;60459.00;5302518;28;20114;-74
2022/10/30 08:44:36;;;;;;;11.18;4.78;;;;;;;-146.48;100.00;60459.00;5302100;28;20131;-75
2022/10/30 08:47:07;;;;;;;8.30;4.05;;;;;;;-146.48;100.00;60459.00;5301739;28;20133;-72
2022/10/30 08:49:39;;;;;;;8.63;3.90;;;;;;;-146.48;100.00;60459.00;5301513;28;20024;-75
2022/10/30 08:52:10;;;;;;;8.38;4.20;;;;;;;-146.48;100.00;60459.00;5302371;28;20032;-74
2022/10/30 08:54:41;;;;;;;10.93;3.90;;;;;;;-146.48;100.00;60459.00;5301274;28;20024;-75
2022/10/30 08:57:12;;;;;;;12.50;4.40;;;;;;;-146.48;100.00;60459.00;5302456;28;20474;-73
2022/10/30 08:59:44;;;;;;;10.25;4.53;;;;;;;-146.48;100.00;60459.00;5301195;28;20103;-73
2022/10/30 09:02:15;;;;;;;11.85;3.97;;;;;;;-146.48;100.00;60459.00;5302377;28;20103;-72
2022/10/30 09:04:46;;;;;;;10.40;3.97;;;;;;;-146.48;100.00;60459.00;5301424;28;20068;-72
2022/10/30 09:07:17;;;;;;;9.88;3.58;;;;;;;-146.48;100.00;60459.00;5301499;28;20038;-73
2022/10/30 09:09:49;;;;;;;11.00;4.47;;;;;;;-146.48;100.00;60459.00;5301725;28;20039;-74
2022/10/30 09:12:20;;;;;;;9.48;4.22;;;;;;;-146.48;100.00;60459.00;5302375;28;20078;-72
2022/10/30 09:14:51;;;;;;;10.82;3.97;;;;;;;-146.48;100.00;60459.00;5300913;28;20097;-74
2022/10/30 09:17:23;;;;;;;10.43;4.35;;;;;;;-146.48;100.00;60459.00;5301549;28;20092;-73
2022/10/30 09:19:54;;;;;;;9.95;4.03;;;;;;;-146.48;100.00;60459.00;5301094;28;20038;-72
2022/10/30 09:22:25;;;;;;;9.77;3.80;;;;;;;-146.48;100.00;60459.00;5300983;28;20025;-71
2022/10/30 09:24:56;;;;;;;9.30;4.30;;;;;;;-146.48;100.00;60459.00;5301483;28;20071;-72
2022/10/30 09:27:28;;;;;;;7.60;3.67;;;;;;;-146.48;100.00;60459.00;5301047;28;20077;-72
2022/10/30 09:29:59;;;;;;;10.35;4.18;;;;;;;-146.48;100.00;60459.00;5301055;28;20543;-71
2022/10/30 09:32:30;;;;;;;8.57;3.53;;;;;;;-146.48;100.00;60459.00;5301420;28;20442;-72
2022/10/30 09:35:02;;;;;;;9.05;3.40;;;;;;;-146.48;100.00;60459.00;5301209;28;20398;-74
2022/10/30 09:37:37;;;;;;;8.98;3.67;;;;;;;-146.48;100.00;60459.00;5301340;28;20114;-74
2022/10/30 09:40:17;;;;;;;10.77;3.15;;;;;;;-146.48;100.00;60459.00;5301683;28;20032;-71
2022/10/30 09:42:49;;;;;;;9.23;3.70;;;;;;;-146.48;100.00;60459.00;5300720;28;20031;-71
2022/10/30 09:45:32;;;;;;;9.20;4.18;;;;;;;-146.48;100.00;60459.00;5301730;28;20032;-70
2022/10/30 09:48:41;;;;;;;11.35;3.55;;;;;;;-146.48;100.00;60459.00;5301898;28;20118;-73
2022/10/30 09:51:18;;;;;;;10.98;3.75;;;;;;;-146.48;100.00;60459.00;5301011;28;20118;-71
2022/10/30 09:53:55;;;;;;;11.50;3.50;;;;;;;-146.48;100.00;60459.00;5301427;28;20399;-71
2022/10/30 09:56:42;;;;;;;10.18;3.78;;;;;;;-146.48;100.00;60459.00;5300060;28;20024;-74
2022/10/30 09:59:28;;;;;;;10.98;3.20;;;;;;;-146.48;100.00;60459.00;5301651;28;20093;-71
2022/10/30 10:02:27;;;;;;;8.50;3.53;;;;;;;-146.48;100.00;60459.00;5303720;28;20032;-71
2022/10/30 10:05:02;;;;;;;;;;;;;;;-146.48;100.00;60459.00;5304974;28;20122;-73
2022/10/30 10:07:42;;;;;;;7.00;3.08;;;;;;;-146.48;100.00;60459.00;5304984;28;19916;-71
2022/10/30 10:10:22;;;;;;;10.30;3.50;;;;;;;-146.48;100.00;60459.00;5304668;28;20027;-71
2022/10/30 10:12:54;;;;;;;10.95;3.47;;;;;;;-146.48;100.00;60459.00;5304849;28;20031;-71
2022/10/30 10:15:41;;;;;;;9.02;3.78;;;;;;;-146.48;100.00;60459.00;5305017;28;20043;-71
2022/10/30 10:18:26;;;;;;;10.10;3.60;;;;;;;-146.48;100.00;60459.00;5304660;28;20055;-72
2022/10/30 10:21:04;;;;;;;10.60;3.60;;;;;;;-146.48;100.00;60459.00;5305445;28;20028;-71
2022/10/30 10:23:46;;;;;;;9.73;3.80;;;;;;;-146.48;100.00;60459.00;5304583;28;20111;-71
2022/10/30 10:26:23;;;;;;;10.70;3.95;;;;;;;-146.48;100.00;60459.00;5304538;28;20525;-71
2022/10/30 10:29:24;;;;;;;9.25;3.63;;;;;;;-146.48;100.00;60459.00;5304849;28;20123;-71
2022/10/30 10:32:20;;;;;;;8.80;2.72;;;;;;;-146.48;100.00;60459.00;5303369;28;20144;-71
2022/10/30 10:35:03;;;;;;;6.32;3.13;;;;;;;-146.48;100.00;60459.00;5304475;28;20140;-71
2022/10/30 10:37:40;;;;;;;7.97;3.30;;;;;;;-146.48;100.00;60459.00;5304147;28;20036;-71
2022/10/30 10:40:20;;;;;;;8.23;3.30;;;;;;;-146.48;100.00;60459.00;5303990;28;20142;-71
2022/10/30 10:43:29;;;;;;;5.25;2.58;;;;;;;-146.48;100.00;60459.00;5304443;28;20055;-72
2022/10/30 10:46:09;;;;;;;10.57;3.70;;;;;;;-146.48;100.00;60459.00;5303802;28;20059;-71
2022/10/30 10:49:04;;;;;;;6.20;2.50;;;;;;;-146.48;100.00;60459.00;5304100;28;20409;-72
2022/10/30 10:51:51;;;;;;;4.82;2.70;;;;;;;-146.48;100.00;60459.00;5304025;28;20031;-72
2022/10/30 10:54:28;;;;;;;9.07;3.17;;;;;;;-146.48;100.00;60459.00;5303861;28;20028;-71
2022/10/30 10:57:04;;;;;;;9.48;2.80;;;;;;;-146.48;100.00;60459.00;5304520;28;20031;-71
2022/10/30 10:59:43;;;;;;;15.18;2.90;;;;;;;-146.48;100.00;60459.00;5303116;28;20027;-72
2022/10/30 11:02:42;;;;;;;10.90;2.60;;;;;;;-146.48;100.00;60459.00;5304622;28;20024;-72
2022/10/30 11:05:28;;;;;;;11.25;3.15;;;;;;;-146.48;100.00;60459.00;5304219;28;20028;-71
2022/10/30 11:08:13;;;;;;;8.52;2.60;;;;;;;-146.48;100.00;60459.00;5303630;28;20377;-71
2022/10/30 11:11:06;;;;;;;11.68;3.30;;;;;;;-146.48;100.00;60459.00;5303768;28;20032;-72
2022/10/30 11:13:40;;;;;;;7.30;2.88;;;;;;;-146.48;100.00;60459.00;5302211;28;20016;-73
2022/10/30 11:16:23;;;;;;;12.77;3.10;;;;;;;-146.48;100.00;60459.00;5303910;28;20316;-72
2022/10/30 11:18:59;;;;;;;11.45;3.20;;;;;;;-146.48;100.00;60459.00;5303713;28;20028;-72
2022/10/30 11:21:37;;;;;;;5.85;2.63;;;;;;;-146.48;100.00;60459.00;5302493;28;20027;-72
2022/10/30 11:24:34;;;;;;;10.52;2.55;;;;;;;-146.48;100.00;60459.00;5303923;28;20031;-72
2022/10/30 11:27:23;;;;;;;8.38;2.75;;;;;;;-146.48;100.00;60459.00;5303982;28;20110;-72
2022/10/30 11:30:00;;;;;;;8.45;2.67;;;;;;;-146.48;100.00;60459.00;5302923;28;20365;-72
2022/10/30 11:32:33;;;;;;;9.43;3.08;;;;;;;-146.48;100.00;60459.00;5303036;28;20463;-72
2022/10/30 11:35:07;;;;;;;8.98;2.53;;;;;;;-146.48;100.00;60459.00;5302860;28;20020;-72
2022/10/30 11:37:40;;;;;;;8.20;2.97;;;;;;;-146.48;100.00;60459.00;5301861;28;20379;-72